Time;durP1;ratioP1;P1;durP2;ratioP2;P2;SDS_P1;SDS_P2;PMS_P1;PMS_P2;Temp;Humidity;BMP_temperature;BMP_pressure;BME280_temperature;BME280_humidity;BME280_pressure;Samples;Min_cycle;Max_cycle;Signal;HPM_P1;HPM_P2
2023/02/26 00:01:47;;;;;;;;;12.00;8.00;;;;;4.18;81.75;98291.94;6314269;20;2765014;-45
2023/02/26 00:04:15;;;;;;;;;17.00;10.50;;;;;4.25;82.30;98311.03;6284661;20;2797215;-46
2023/02/26 00:06:54;;;;;;;;;7.50;7.00;;;;;4.22;81.87;98323.66;6297627;20;1810747;-45
2023/02/26 00:09:24;;;;;;;;;11.00;7.00;;;;;4.05;82.34;98325.47;6315603;20;2755468;-45
2023/02/26 00:11:55;;;;;;;;;10.33;8.50;;;;;4.25;81.47;98318.16;6357414;20;1814931;-44
2023/02/26 00:14:24;;;;;;;;;8.00;8.00;;;;;4.04;82.17;98307.81;6303902;20;1808694;-46
2023/02/26 00:17:29;;;;;;;;;9.00;9.00;;;;;4.23;82.45;98306.75;6314735;20;2728434;-44
2023/02/26 00:19:59;;;;;;;;;11.25;8.50;;;;;4.18;81.53;98307.88;6328726;20;1831794;-43
2023/02/26 00:22:27;;;;;;;;;11.00;11.00;;;;;4.14;81.83;98306.34;6315379;20;2775560;-44
2023/02/26 00:24:55;;;;;;;;;12.50;10.00;;;;;4.23;82.07;98310.28;6284093;20;2785746;-45
2023/02/26 00:27:23;;;;;;;;;11.00;8.00;;;;;4.18;81.99;98318.50;6283700;20;2753411;-45
2023/02/26 00:29:51;;;;;;;;;8.50;8.50;;;;;4.27;81.59;98337.53;6283340;20;2740928;-44
2023/02/26 00:32:19;;;;;;;;;11.50;10.00;;;;;4.23;81.73;98341.28;6315926;20;2762878;-44
2023/02/26 00:34:48;;;;;;;;;11.00;9.50;;;;;4.15;81.80;98339.06;6281727;20;2770538;-44
2023/02/26 00:38:00;;;;;;;;;12.00;9.00;;;;;4.25;81.64;98331.44;6282551;20;2764035;-43
2023/02/26 00:40:49;;;;;;;;;9.00;9.00;;;;;4.10;82.11;98327.84;6279301;20;2748349;-45
2023/02/26 00:43:25;;;;;;;;;12.00;9.00;;;;;4.25;82.24;98318.16;6314473;20;2774251;-43
2023/02/26 00:46:25;;;;;;;;;12.00;9.50;;;;;4.01;83.18;98315.97;6282200;20;2769079;-43
2023/02/26 00:49:14;;;;;;;;;9.00;9.00;;;;;3.94;83.10;98311.94;6282603;20;2731616;-44
2023/02/26 00:52:03;;;;;;;;;10.00;10.00;;;;;3.93;83.04;98328.81;6282404;20;2781566;-44
2023/02/26 00:54:31;;;;;;;;;15.00;12.50;;;;;4.04;83.86;98334.38;6280622;20;2801814;-45
2023/02/26 00:56:59;;;;;;;;;11.00;11.00;;;;;4.14;82.70;98337.38;6282520;20;2773426;-44
2023/02/26 00:59:29;;;;;;;;;13.00;13.00;;;;;4.20;82.55;98347.63;6308584;20;2792216;-44
2023/02/26 01:01:57;;;;;;;;;13.00;13.00;;;;;4.26;82.10;98346.44;6281419;20;2789852;-44
2023/02/26 01:04:25;;;;;;;;;18.50;17.00;;;;;4.03;82.70;98335.34;6287454;20;2826335;-44
2023/02/26 01:06:56;;;;;;;;;13.00;11.00;;;;;4.06;82.45;98329.00;6281143;20;2795258;-44
2023/02/26 01:09:36;;;;;;;;;17.50;13.50;;;;;4.03;83.01;98335.34;6285966;20;2798267;-43
2023/02/26 01:12:10;;;;;;;;;15.00;12.00;;;;;3.97;83.02;98325.88;6281653;20;2793132;-46
2023/02/26 01:14:39;;;;;;;;;11.00;11.00;;;;;4.09;82.38;98319.03;6280990;20;2789977;-45
2023/02/26 01:17:31;;;;;;;;;13.20;10.60;;;;;3.95;82.94;98317.19;6307462;20;2794103;-44
2023/02/26 01:20:18;;;;;;;;;11.14;10.14;;;;;3.92;82.99;98327.97;6318995;20;1816725;-44
2023/02/26 01:22:56;;;;;;;;;16.20;13.60;;;;;3.95;82.73;98321.63;6333282;20;2817113;-43
2023/02/26 01:25:53;;;;;;;;;13.00;11.50;;;;;4.03;82.36;98324.72;6278620;20;2776355;-45
2023/02/26 01:28:23;;;;;;;;;14.67;13.00;;;;;3.91;83.03;98333.38;6279301;20;2792163;-44
2023/02/26 01:30:58;;;;;;;;;13.00;12.50;;;;;3.90;83.69;98334.31;6308731;20;2780547;-43
2023/02/26 01:33:57;;;;;;;;;19.00;14.67;;;;;3.78;83.49;98332.34;6278902;20;3553431;-44
2023/02/26 01:36:35;;;;;;;;;14.00;13.00;;;;;3.86;83.92;98338.94;6312720;20;2791968;-44
2023/02/26 01:39:30;;;;;;;;;16.00;13.00;;;;;3.92;83.69;98333.28;6276284;20;3524251;-43
2023/02/26 01:42:22;;;;;;;;;17.67;16.00;;;;;3.89;83.92;98337.91;6311423;20;3555500;-45
2023/02/26 01:44:58;;;;;;;;;15.40;13.20;;;;;3.91;83.84;98314.78;6337747;20;2806556;-44
2023/02/26 01:47:57;;;;;;;;;12.80;12.20;;;;;3.86;83.99;98322.16;6304307;20;2788930;-44
2023/02/26 01:50:31;;;;;;;;;14.40;12.60;;;;;3.73;85.14;98319.31;6301901;20;2787905;-44
2023/02/26 01:53:23;;;;;;;;;16.50;11.00;;;;;3.81;84.55;98318.88;6275731;20;2793045;-45
2023/02/26 01:56:16;;;;;;;;;15.80;15.20;;;;;3.83;84.21;98312.56;6303350;20;2818134;-45
2023/02/26 01:58:49;;;;;;;;;17.00;15.67;;;;;4.02;83.45;98320.31;6279984;20;3562987;-44
2023/02/26 02:01:16;;;;;;;;;13.50;13.00;;;;;3.82;84.49;98325.91;6309958;20;2790915;-43
2023/02/26 02:03:45;;;;;;;;;15.67;15.67;;;;;3.77;84.29;98328.84;6278723;20;3545126;-47
2023/02/26 02:06:23;;;;;;;;;23.00;17.67;;;;;3.74;85.08;98329.00;6311587;20;3553402;-44
2023/02/26 02:08:51;;;;;;;;;19.00;18.00;;;;;3.84;84.50;98318.72;6310804;20;2827619;-45
2023/02/26 02:11:20;;;;;;;;;17.33;15.33;;;;;3.74;84.03;98323.69;6275641;20;3551456;-45
2023/02/26 02:14:16;;;;;;;;;24.00;20.00;;;;;3.87;83.84;98337.13;6308388;20;3569052;-44
2023/02/26 02:17:32;;;;;;;;;21.00;19.00;;;;;3.78;84.40;98329.69;6310528;20;2494133;-44
2023/02/26 02:20:40;;;;;;;;;13.71;11.71;;;;;3.79;84.49;98342.00;6317901;20;1812929;-43
2023/02/26 02:23:46;;;;;;;;;18.00;18.00;;;;;3.72;84.16;98334.38;6310406;20;3547385;-45
2023/02/26 02:26:52;;;;;;;;;18.67;16.67;;;;;3.53;85.47;98341.66;6277798;20;3560713;-44
2023/02/26 02:29:48;;;;;;;;;27.00;25.00;;;;;3.67;84.93;98339.09;6277339;20;2500422;-43
2023/02/26 02:33:00;;;;;;;;;23.33;18.00;;;;;3.77;84.74;98336.81;6276464;20;3563831;-44
2023/02/26 02:35:45;;;;;;;;;24.50;16.50;;;;;3.74;84.07;98340.47;6313901;20;2835774;-44
2023/02/26 02:38:26;;;;;;;;;16.67;16.67;;;;;3.64;85.01;98344.56;6285027;20;3546631;-44
2023/02/26 02:41:19;;;;;;;;;18.00;17.00;;;;;3.70;85.20;98338.91;6313275;20;3552353;-44
2023/02/26 02:43:50;;;;;;;;;22.50;16.50;;;;;3.74;84.87;98340.47;6316351;20;2826348;-44
2023/02/26 02:46:29;;;;;;;;;17.33;16.50;;;;;3.86;83.95;98351.34;6306752;20;2826411;-48
2023/02/26 02:49:34;;;;;;;;;19.00;15.33;;;;;3.69;84.16;98360.25;6314811;20;3558712;-48
2023/02/26 02:52:51;;;;;;;;;19.00;12.00;;;;;3.66;84.19;98355.97;6314544;20;2689987;-49
2023/02/26 02:55:28;;;;;;;;;15.33;14.67;;;;;3.62;84.34;98367.69;6285112;20;3548282;-47
2023/02/26 02:58:12;;;;;;;;;17.00;15.00;;;;;3.68;84.29;98364.69;6314493;20;3551378;-45
2023/02/26 03:00:54;;;;;;;;;14.00;14.00;;;;;3.86;83.41;98375.25;6313473;20;3529472;-45
2023/02/26 03:03:56;;;;;;;;;12.50;12.00;;;;;3.68;83.84;98367.34;6315058;20;2789891;-44
2023/02/26 03:06:25;;;;;;;;;20.00;16.67;;;;;3.65;84.47;98372.81;6284513;20;3549328;-44
2023/02/26 03:09:00;;;;;;;;;12.00;11.29;;;;;3.50;85.10;98386.91;6357272;20;1812838;-46
2023/02/26 03:11:31;;;;;;;;;16.40;12.80;;;;;3.65;84.43;98394.06;6339598;20;2796136;-44
2023/02/26 03:13:59;;;;;;;;;12.00;10.50;;;;;3.50;84.17;98385.13;6286662;20;2780554;-46
2023/02/26 03:17:16;;;;;;;;;16.40;12.80;;;;;3.59;83.96;98391.75;6307060;20;2798340;-44
2023/02/26 03:20:25;;;;;;;;;11.50;7.00;;;;;3.45;84.29;98402.22;6281797;20;2769147;-45
2023/02/26 03:23:39;;;;;;;;;8.00;8.00;;;;;3.58;83.88;98403.31;6323351;20;1817034;-44
2023/02/26 03:26:14;;;;;;;;;13.00;11.00;;;;;3.41;83.69;98406.84;6284328;20;2789870;-43
2023/02/26 03:29:04;;;;;;;;;13.00;11.50;;;;;3.61;82.94;98410.25;6282203;20;2788830;-44
2023/02/26 03:31:54;;;;;;;;;12.00;12.00;;;;;3.65;82.18;98409.97;6277890;20;2795139;-44
2023/02/26 03:34:41;;;;;;;;;15.75;11.00;;;;;3.52;82.64;98408.91;6297225;20;1821180;-44
2023/02/26 03:37:21;;;;;;;;;13.00;11.00;;;;;3.62;82.14;98415.47;6312578;20;2781564;-45
2023/02/26 03:39:58;;;;;;;;;12.50;11.50;;;;;3.43;82.98;98415.59;6282572;20;2786733;-45
2023/02/26 03:42:45;;;;;;;;;10.50;10.50;;;;;3.57;82.09;98422.81;6283962;20;2796696;-44
2023/02/26 03:45:29;;;;;;;;;15.00;12.20;;;;;3.63;82.21;98417.16;6302708;20;2795125;-44
2023/02/26 03:48:01;;;;;;;;;12.00;10.50;;;;;3.85;81.74;98426.63;6277213;20;2779659;-44
2023/02/26 03:50:44;;;;;;;;;13.86;10.86;;;;;3.58;82.67;98428.97;6321523;20;1811859;-45
2023/02/26 03:53:32;;;;;;;;;15.00;12.60;;;;;3.48;82.84;98423.31;6338579;20;2795094;-44
2023/02/26 03:56:41;;;;;;;;;16.50;12.00;;;;;3.50;82.92;98434.69;6284695;20;2795119;-43
2023/02/26 03:59:14;;;;;;;;;12.83;10.33;;;;;3.52;82.52;98454.03;6320875;20;1817053;-46
2023/02/26 04:01:57;;;;;;;;;13.00;12.00;;;;;3.50;82.36;98447.94;6303351;20;2787794;-44
2023/02/26 04:05:03;;;;;;;;;17.60;13.60;;;;;3.54;82.23;98452.16;6304382;20;2806537;-44
2023/02/26 04:07:31;;;;;;;;;21.50;18.50;;;;;3.55;82.16;98451.22;6283318;20;2824498;-44
2023/02/26 04:09:59;;;;;;;;;16.33;14.67;;;;;3.62;81.27;98451.75;6285011;20;3537782;-43
2023/02/26 04:12:29;;;;;;;;;15.67;14.00;;;;;3.47;82.08;98442.81;6309879;20;3542028;-44
2023/02/26 04:14:57;;;;;;;;;15.50;13.00;;;;;3.47;81.76;98441.00;6315959;20;2799231;-44
2023/02/26 04:17:25;;;;;;;;;14.50;13.00;;;;;3.46;81.60;98435.78;6280673;20;2797172;-45
2023/02/26 04:19:54;;;;;;;;;17.00;12.00;;;;;3.34;81.76;98433.78;6307156;20;2814031;-44
2023/02/26 04:22:25;;;;;;;;;11.00;9.00;;;;;3.30;82.90;98425.97;6327474;20;1810216;-45
2023/02/26 04:24:55;;;;;;;;;12.00;8.80;;;;;3.26;82.77;98423.56;6307163;20;2761760;-44
2023/02/26 04:27:22;;;;;;;;;14.00;12.00;;;;;3.44;82.30;98424.41;6313426;20;2789898;-44
2023/02/26 04:29:50;;;;;;;;;17.00;12.50;;;;;3.48;82.19;98423.31;6285301;20;2796159;-44
2023/02/26 04:32:19;;;;;;;;;17.33;12.33;;;;;3.43;81.81;98420.88;6285088;20;2800761;-44
2023/02/26 04:34:47;;;;;;;;;12.00;11.00;;;;;3.32;82.78;98435.63;6315262;20;2781530;-44
2023/02/26 04:37:14;;;;;;;;;12.00;8.00;;;;;3.26;82.77;98439.47;6285610;20;2765938;-43
2023/02/26 04:39:42;;;;;;;;;13.00;12.00;;;;;3.31;82.93;98463.97;6285088;20;2794178;-43
2023/02/26 04:42:10;;;;;;;;;11.00;8.00;;;;;3.26;82.63;98479.25;6279885;20;2751376;-43
2023/02/26 04:44:39;;;;;;;;;11.20;10.60;;;;;3.32;82.73;98480.75;6338778;20;2784782;-45
2023/02/26 04:47:07;;;;;;;;;16.00;12.00;;;;;3.27;83.02;98486.31;6281915;20;2802627;-45
2023/02/26 04:49:36;;;;;;;;;13.00;12.33;;;;;3.05;84.41;98500.66;6282444;20;2783075;-44
2023/02/26 04:52:04;;;;;;;;;17.00;15.00;;;;;3.25;85.16;98507.59;6313106;20;3545032;-43
2023/02/26 04:54:33;;;;;;;;;16.67;15.67;;;;;3.24;84.51;98503.22;6312601;20;3550819;-45
2023/02/26 04:57:02;;;;;;;;;17.80;13.00;;;;;3.26;84.83;98497.81;6339099;20;2804464;-44
2023/02/26 04:59:31;;;;;;;;;18.33;13.00;;;;;3.14;84.78;98499.31;6284949;20;2797198;-44
2023/02/26 05:01:59;;;;;;;;;19.50;15.00;;;;;3.24;84.38;98489.97;6312967;20;2831561;-43
2023/02/26 05:04:28;;;;;;;;;22.33;18.33;;;;;3.06;85.01;98491.75;6282042;20;3556543;-45
2023/02/26 05:06:58;;;;;;;;;18.50;16.50;;;;;3.27;84.58;98489.81;6303675;20;2827441;-44
2023/02/26 05:09:26;;;;;;;;;16.00;14.00;;;;;3.00;84.45;98497.38;6310635;20;2790934;-44
2023/02/26 05:11:54;;;;;;;;;12.00;10.00;;;;;3.22;85.41;98502.44;6280696;20;2786739;-45
2023/02/26 05:14:23;;;;;;;;;15.80;13.00;;;;;3.20;84.94;98496.34;6304824;20;2823180;-44
2023/02/26 05:16:55;;;;;;;;;12.00;11.86;;;;;3.06;84.58;98482.94;6325517;20;1815971;-47
2023/02/26 05:19:23;;;;;;;;;13.00;12.67;;;;;2.99;85.87;98498.28;6307522;20;2784857;-43
2023/02/26 05:21:52;;;;;;;;;14.00;14.00;;;;;3.15;84.97;98498.38;6312190;20;2806584;-43
2023/02/26 05:24:20;;;;;;;;;17.67;15.00;;;;;3.01;85.37;98499.06;6312445;20;2827485;-46
2023/02/26 05:26:48;;;;;;;;;20.00;13.00;;;;;2.96;85.73;98505.56;6314090;20;2804539;-43
2023/02/26 05:29:17;;;;;;;;;22.67;17.33;;;;;2.97;85.98;98496.66;6281156;20;3555605;-45
2023/02/26 05:31:45;;;;;;;;;19.67;14.00;;;;;3.07;85.66;98509.38;6277991;20;2802425;-43
2023/02/26 05:34:16;;;;;;;;;18.67;17.67;;;;;3.21;85.48;98518.41;6336271;20;2830660;-43
2023/02/26 05:36:43;;;;;;;;;19.50;19.50;;;;;3.21;85.66;98503.41;6314450;20;2817971;-44
2023/02/26 05:39:12;;;;;;;;;17.33;14.67;;;;;3.17;85.62;98507.13;6280586;20;3545098;-43
2023/02/26 05:41:41;;;;;;;;;23.00;18.00;;;;;3.21;85.96;98519.31;6310724;20;3552374;-44
2023/02/26 05:44:09;;;;;;;;;19.00;19.00;;;;;3.32;84.96;98544.41;6282849;20;2825256;-43
2023/02/26 05:46:38;;;;;;;;;20.67;20.67;;;;;3.33;84.63;98548.78;6278774;20;3557101;-44
2023/02/26 05:49:06;;;;;;;;;23.00;20.33;;;;;3.35;84.79;98538.97;6278637;20;3562884;-46
2023/02/26 05:51:35;;;;;;;;;23.33;17.00;;;;;3.17;84.94;98533.63;6273860;20;3560799;-44
2023/02/26 05:54:04;;;;;;;;;21.33;17.00;;;;;3.06;85.79;98535.97;6310250;20;3557724;-46
2023/02/26 05:56:33;;;;;;;;;27.33;21.00;;;;;2.97;86.71;98539.91;6311526;20;3573270;-48
2023/02/26 05:59:03;;;;;;;;;27.50;23.17;;;;;3.17;86.57;98554.84;6334883;20;2844123;-48
2023/02/26 06:01:32;;;;;;;;;29.50;23.00;;;;;3.06;86.96;98570.44;6305266;20;2853577;-47
2023/02/26 06:04:03;;;;;;;;;19.33;15.67;;;;;3.06;88.14;98570.44;6281748;20;3556534;-47
2023/02/26 06:06:32;;;;;;;;;20.00;20.00;;;;;3.08;87.93;98574.75;6279973;20;3561757;-47
2023/02/26 06:09:01;;;;;;;;;18.33;17.00;;;;;3.04;87.66;98582.91;6312088;20;3577381;-45
2023/02/26 06:11:31;;;;;;;;;18.33;15.67;;;;;3.05;88.35;98596.13;6316727;20;3551418;-46
2023/02/26 06:14:01;;;;;;;;;37.50;30.50;;;;;3.04;88.73;98593.53;6318461;20;2863888;-45
2023/02/26 06:16:31;;;;;;;;;29.00;26.00;;;;;3.06;88.92;98612.88;6283620;20;2844557;-45
2023/02/26 06:18:59;;;;;;;;;25.00;23.50;;;;;2.88;89.38;98600.50;6284672;20;2500293;-44
2023/02/26 06:21:28;;;;;;;;;29.33;28.00;;;;;3.09;88.96;98612.72;6285539;20;3587765;-44
2023/02/26 06:23:57;;;;;;;;;25.50;24.00;;;;;3.11;88.33;98605.56;6285265;20;2848268;-45
2023/02/26 06:26:24;;;;;;;;;27.50;23.00;;;;;3.23;88.16;98604.94;6288074;20;2846173;-48
2023/02/26 06:28:54;;;;;;;;;24.67;20.67;;;;;3.07;87.90;98609.28;6285521;20;3571163;-44
2023/02/26 06:31:22;;;;;;;;;30.00;27.00;;;;;3.16;88.49;98602.66;6280883;20;2500447;-43
2023/02/26 06:33:50;;;;;;;;;34.00;27.00;;;;;3.34;88.08;98606.22;6278972;20;2500274;-43
2023/02/26 06:36:19;;;;;;;;;30.67;22.67;;;;;3.27;87.97;98611.81;6286435;20;3589038;-45
2023/02/26 06:38:48;;;;;;;;;38.67;29.67;;;;;3.44;86.66;98620.75;6283820;20;2865894;-45
2023/02/26 06:41:17;;;;;;;;;33.50;30.00;;;;;3.31;86.46;98623.13;6315808;20;2854534;-44
2023/02/26 06:43:45;;;;;;;;;25.00;25.00;;;;;3.38;86.27;98623.69;6286675;20;2500366;-44
2023/02/26 06:46:14;;;;;;;;;44.33;37.67;;;;;3.40;86.52;98628.00;6287749;20;2860833;-44
2023/02/26 06:48:43;;;;;;;;;44.00;36.50;;;;;3.34;86.86;98628.28;6316631;20;2866079;-44
2023/02/26 06:51:13;;;;;;;;;47.67;38.00;;;;;3.37;87.11;98629.94;6283702;20;3603476;-43
2023/02/26 06:53:42;;;;;;;;;40.67;36.33;;;;;3.49;85.75;98637.28;6316919;20;2867109;-44
2023/02/26 06:56:12;;;;;;;;;41.00;35.33;;;;;3.37;86.49;98632.56;6318570;20;2863849;-43
2023/02/26 06:58:42;;;;;;;;;49.67;36.67;;;;;3.54;85.87;98643.22;6316613;20;3638848;-44
2023/02/26 07:01:11;;;;;;;;;35.00;29.33;;;;;3.35;85.88;98639.78;6316465;20;2859711;-44
2023/02/26 07:03:41;;;;;;;;;33.50;30.00;;;;;3.43;86.23;98637.59;6316135;20;2852463;-44
2023/02/26 07:06:11;;;;;;;;;34.00;29.00;;;;;3.70;86.15;98646.81;6285944;20;2853404;-43
2023/02/26 07:08:55;;;;;;;;;28.50;24.50;;;;;3.69;84.89;98645.13;6282024;20;2848348;-44
2023/02/26 07:11:24;;;;;;;;;26.00;26.00;;;;;3.58;84.50;98636.84;6283234;20;2500316;-42
2023/02/26 07:13:52;;;;;;;;;27.00;23.50;;;;;3.69;84.99;98641.63;6283532;20;2500359;-43
2023/02/26 07:16:20;;;;;;;;;31.50;26.50;;;;;3.98;83.65;98629.50;6284274;20;2500297;-43
2023/02/26 07:18:49;;;;;;;;;47.00;34.67;;;;;3.90;83.53;98632.56;6283561;20;3631632;-44
2023/02/26 07:21:19;;;;;;;;;49.67;39.67;;;;;3.70;83.74;98645.97;6312420;20;2861745;-44
2023/02/26 07:23:47;;;;;;;;;34.00;25.50;;;;;4.01;82.94;98639.97;6315434;20;2850296;-44
2023/02/26 07:26:16;;;;;;;;;34.50;26.00;;;;;4.17;81.54;98651.50;6284519;20;2860750;-43
2023/02/26 07:28:45;;;;;;;;;20.00;19.00;;;;;4.27;81.13;98651.03;6283874;20;3554522;-44
2023/02/26 07:31:15;;;;;;;;;24.50;22.50;;;;;4.34;80.37;98645.28;6282399;20;2500401;-43
2023/02/26 07:33:44;;;;;;;;;24.00;22.00;;;;;4.18;81.16;98645.25;6284770;20;2846240;-44
2023/02/26 07:36:12;;;;;;;;;18.00;17.00;;;;;4.28;80.55;98642.97;6283612;20;2811749;-43
2023/02/26 07:38:39;;;;;;;;;29.00;24.00;;;;;4.34;80.56;98631.16;6281812;20;2500289;-43
2023/02/26 07:41:08;;;;;;;;;19.33;18.00;;;;;4.13;81.25;98638.44;6284706;20;3562966;-46
2023/02/26 07:43:36;;;;;;;;;18.00;18.00;;;;;4.22;81.89;98642.44;6286340;20;2825310;-45
2023/02/26 07:46:04;;;;;;;;;19.67;17.33;;;;;4.39;81.76;98645.06;6287019;20;3540013;-48
2023/02/26 07:48:32;;;;;;;;;23.50;18.00;;;;;4.70;80.78;98648.72;6316461;20;2831592;-45
2023/02/26 07:51:00;;;;;;;;;19.00;19.00;;;;;4.80;78.70;98655.28;6286267;20;2822229;-44
2023/02/26 07:53:28;;;;;;;;;17.00;14.00;;;;;4.43;78.98;98640.44;6285162;20;2800689;-44
2023/02/26 07:55:55;;;;;;;;;14.00;13.00;;;;;4.25;79.82;98642.28;6285134;20;2804459;-46
2023/02/26 07:58:24;;;;;;;;;13.33;13.33;;;;;4.64;79.57;98649.94;6285214;20;3537880;-46
2023/02/26 08:00:53;;;;;;;;;20.33;14.67;;;;;4.74;78.38;98661.78;6305773;20;3551354;-45
2023/02/26 08:03:21;;;;;;;;;17.33;16.00;;;;;4.79;76.91;98658.84;6285054;20;3569527;-44
2023/02/26 08:05:49;;;;;;;;;18.50;13.00;;;;;4.83;77.24;98655.09;6316482;20;2813861;-43
2023/02/26 08:08:18;;;;;;;;;18.67;16.67;;;;;5.02;75.71;98661.09;6284631;20;3551397;-43
2023/02/26 08:10:46;;;;;;;;;16.00;14.67;;;;;5.04;75.75;98659.22;6282405;20;3543272;-44
2023/02/26 08:13:15;;;;;;;;;13.33;13.00;;;;;4.88;75.70;98654.84;6312888;20;2794314;-44
2023/02/26 08:15:43;;;;;;;;;18.00;14.33;;;;;4.75;75.00;98662.63;6314357;20;3543022;-47
2023/02/26 08:18:12;;;;;;;;;16.67;14.67;;;;;4.67;75.52;98670.16;6315596;20;3538882;-44
2023/02/26 08:20:41;;;;;;;;;18.67;16.33;;;;;4.75;75.48;98662.63;6314641;20;3563915;-44
2023/02/26 08:23:10;;;;;;;;;35.33;27.67;;;;;5.05;74.74;98660.97;6285553;20;3597156;-43
2023/02/26 08:25:38;;;;;;;;;20.00;20.00;;;;;5.07;74.69;98664.38;6282939;20;2825412;-44
2023/02/26 08:28:06;;;;;;;;;20.33;20.00;;;;;5.14;74.05;98664.91;6284241;20;3562888;-44
2023/02/26 08:30:35;;;;;;;;;19.00;19.00;;;;;5.46;72.33;98668.41;6312339;20;2829484;-45
2023/02/26 08:33:04;;;;;;;;;21.33;15.00;;;;;5.59;72.10;98676.53;6285069;20;3540995;-44
2023/02/26 08:35:33;;;;;;;;;54.50;44.00;;;;;5.81;70.31;98677.97;6282784;20;2869104;-44
2023/02/26 08:38:03;;;;;;;;;22.17;14.67;;;;;5.07;71.80;98679.47;6308482;20;2834682;-50
2023/02/26 08:40:31;;;;;;;;;15.50;15.00;;;;;5.09;72.59;98682.06;6316050;20;2823206;-50
2023/02/26 08:42:58;;;;;;;;;15.00;15.00;;;;;4.88;72.95;98682.28;6287321;20;2803406;-48
2023/02/26 08:45:28;;;;;;;;;54.00;41.00;;;;;5.16;73.08;98686.97;6281406;20;2877368;-46
2023/02/26 08:47:58;;;;;;;;;13.60;10.20;;;;;4.89;73.25;98681.34;6339020;20;2789874;-45
2023/02/26 08:50:27;;;;;;;;;22.00;16.00;;;;;5.18;72.97;98693.03;6284129;20;2822167;-46
2023/02/26 08:52:55;;;;;;;;;17.00;15.00;;;;;4.87;73.43;98699.22;6281201;20;2806665;-48
2023/02/26 08:55:23;;;;;;;;;24.00;22.50;;;;;4.92;74.55;98702.44;6284172;20;2846096;-44
2023/02/26 08:57:51;;;;;;;;;16.00;16.00;;;;;5.33;74.07;98707.31;6285081;20;3540912;-43
2023/02/26 09:00:21;;;;;;;;;24.50;20.50;;;;;5.39;73.61;98698.09;6313988;20;2836778;-43
2023/02/26 09:02:50;;;;;;;;;28.00;24.00;;;;;5.67;74.41;98705.41;6283074;20;2855044;-44
2023/02/26 09:05:18;;;;;;;;;50.33;36.33;;;;;5.11;75.49;98714.75;6284107;20;2875381;-45
2023/02/26 09:07:47;;;;;;;;;53.00;35.00;;;;;5.23;75.99;98717.59;6312447;20;2744127;-43
2023/02/26 09:10:16;;;;;;;;;10.00;3.50;;;;;4.93;77.51;98730.78;6313367;20;2772179;-43
2023/02/26 09:12:46;;;;;;;;;85.00;67.00;;;;;5.09;78.26;98727.28;6282857;20;3660697;-44
2023/02/26 09:15:17;;;;;;;;;26.67;18.00;;;;;5.09;78.47;98741.44;6304397;20;2851462;-43
2023/02/26 09:17:46;;;;;;;;;25.00;21.33;;;;;5.35;78.75;98741.84;6312152;20;3572130;-43
2023/02/26 09:20:16;;;;;;;;;91.00;76.67;;;;;5.35;79.30;98748.00;6309178;20;3664968;-44
2023/02/26 09:22:46;;;;;;;;;80.00;56.67;;;;;6.03;78.42;98749.50;6277099;20;2899404;-45
2023/02/26 09:25:14;;;;;;;;;30.00;28.50;;;;;5.70;77.80;98745.16;6309794;20;2853470;-44
2023/02/26 09:27:43;;;;;;;;;26.00;20.00;;;;;5.62;79.27;98748.25;6284006;20;2837776;-49
2023/02/26 09:30:12;;;;;;;;;19.50;13.00;;;;;5.37;80.36;98748.78;6281031;20;2491977;-45
2023/02/26 09:32:40;;;;;;;;;21.00;19.50;;;;;5.15;81.52;98756.22;6283806;20;2504434;-44
2023/02/26 09:35:09;;;;;;;;;16.33;16.33;;;;;5.25;81.19;98757.44;6282183;20;3548262;-45
2023/02/26 09:37:39;;;;;;;;;72.33;55.00;;;;;5.62;80.83;98761.56;6316297;20;2875281;-43
2023/02/26 09:40:22;;;;;;;;;17.00;15.00;;;;;5.65;80.09;98761.38;6314413;20;2812912;-45
2023/02/26 09:43:11;;;;;;;;;9.60;5.00;;;;;5.38;80.56;98763.81;6302828;20;2757643;-46
2023/02/26 09:45:44;;;;;;;;;30.67;22.33;;;;;5.17;82.29;98764.97;6336898;20;3598214;-43
2023/02/26 09:48:18;;;;;;;;;82.67;63.33;;;;;5.48;81.98;98761.50;6278440;20;3642038;-44
2023/02/26 09:50:55;;;;;;;;;107.67;97.33;;;;;5.63;81.55;98767.75;6308619;20;3690867;-44
2023/02/26 09:53:33;;;;;;;;;16.33;16.33;;;;;5.45;82.70;98769.63;6281043;20;3545236;-46
2023/02/26 09:56:12;;;;;;;;;8.00;8.00;;;;;5.21;83.57;98785.13;6277890;20;2729583;-43
2023/02/26 09:58:45;;;;;;;;;14.86;11.14;;;;;5.35;83.39;98785.28;6321334;20;1805513;-44
2023/02/26 10:01:33;;;;;;;;;4.25;1.75;;;;;5.46;83.52;98792.66;6327217;20;1811712;-46
2023/02/26 10:04:32;;;;;;;;;11.50;9.00;;;;;5.17;84.31;98796.91;6309943;20;2756519;-44
2023/02/26 10:07:28;;;;;;;;;23.33;19.33;;;;;5.21;85.37;98803.78;6283058;20;3573414;-48
2023/02/26 10:11:09;;;;;;;;;18.80;14.80;;;;;5.35;86.82;98795.91;6305011;20;2810715;-47
2023/02/26 10:17:39;;;;;;;;;8.75;8.00;;;;;5.72;85.66;98799.19;6330264;20;1820729;-49
2023/02/26 10:20:54;;;;;;;;;16.67;13.00;;;;;5.77;83.85;98801.63;6312047;20;2802477;-47
2023/02/26 10:24:07;;;;;;;;;12.00;9.50;;;;;5.27;84.33;98811.44;6312975;20;2773225;-44
2023/02/26 10:26:45;;;;;;;;;10.67;9.00;;;;;5.91;84.50;98810.53;6277493;20;3488844;-44
2023/02/26 10:30:09;;;;;;;;;7.50;7.50;;;;;5.77;83.91;98813.13;6284667;20;2745108;-45
2023/02/26 10:32:59;;;;;;;;;17.67;14.33;;;;;4.99;85.93;98826.19;6307502;20;3541928;-45
2023/02/26 10:35:34;;;;;;;;;20.00;19.00;;;;;5.23;86.80;98828.50;6279427;20;2824273;-46
2023/02/26 10:38:16;;;;;;;;;16.67;16.67;;;;;5.80;84.30;98842.25;6278451;20;3560669;-44
2023/02/26 10:41:14;;;;;;;;;13.60;9.60;;;;;5.64;81.69;98849.38;6303470;20;2770130;-43
2023/02/26 10:44:29;;;;;;;;;12.20;10.60;;;;;5.98;81.55;98837.72;6304568;20;2792104;-46
2023/02/26 10:47:45;;;;;;;;;6.00;6.00;;;;;5.79;80.86;98853.81;6282507;20;2746158;-42
2023/02/26 10:50:17;;;;;;;;;13.00;10.00;;;;;5.36;83.05;98853.50;6309699;20;2782671;-45
2023/02/26 10:52:45;;;;;;;;;15.50;14.00;;;;;5.71;82.53;98853.38;6276070;20;2798246;-43
2023/02/26 10:55:33;;;;;;;;;10.00;10.00;;;;;5.33;83.73;98851.03;6284363;20;2775383;-43
2023/02/26 10:58:15;;;;;;;;;12.00;8.50;;;;;5.35;83.76;98858.94;6284962;20;2762771;-45
2023/02/26 11:00:53;;;;;;;;;18.33;14.67;;;;;5.38;81.75;98859.63;6282535;20;3550289;-46
2023/02/26 11:03:33;;;;;;;;;15.00;14.00;;;;;5.52;83.24;98872.19;6317362;20;2813828;-45
2023/02/26 11:06:05;;;;;;;;;11.67;11.67;;;;;5.71;81.58;98869.38;6286335;20;2787889;-46
2023/02/26 11:08:43;;;;;;;;;19.00;14.00;;;;;5.88;81.25;98869.31;6313328;20;2808614;-44
2023/02/26 11:12:06;;;;;;;;;15.00;15.00;;;;;5.70;81.42;98878.31;6280266;20;3540947;-44
2023/02/26 11:14:35;;;;;;;;;15.50;13.00;;;;;6.20;78.95;98874.66;6315323;20;2808664;-46
2023/02/26 11:17:28;;;;;;;;;14.67;14.67;;;;;6.69;79.33;98866.50;6279976;20;3550343;-47
2023/02/26 11:20:14;;;;;;;;;12.00;12.00;;;;;6.69;76.09;98876.28;6310550;20;2795277;-56
2023/02/26 11:22:52;;;;;;;;;15.00;15.00;;;;;6.90;75.68;98884.84;6314432;20;2491934;-58
2023/02/26 11:25:28;;;;;;;;;18.33;15.33;;;;;7.10;73.95;98886.34;6281412;20;3551540;-58
2023/02/26 11:28:31;;;;;;;;;12.80;9.80;;;;;6.62;74.34;98873.16;6309801;20;2772262;-58
2023/02/26 11:31:10;;;;;;;;;9.75;8.25;;;;;6.45;75.66;98873.25;6299438;20;1819181;-59
2023/02/26 11:33:45;;;;;;;;;11.00;11.00;;;;;6.31;75.26;98879.38;6314727;20;2790911;-59
2023/02/26 11:36:20;;;;;;;;;11.43;10.43;;;;;6.08;77.15;98872.69;6324594;20;1816478;-59
2023/02/26 11:39:22;;;;;;;;;6.75;5.75;;;;;6.31;76.57;98885.56;6333552;20;1821200;-59
2023/02/26 11:41:56;;;;;;;;;24.00;18.00;;;;;6.24;76.46;98881.56;6315529;20;2834674;-59
2023/02/26 11:44:42;;;;;;;;;30.67;19.00;;;;;6.37;75.01;98898.56;6285046;20;3586805;-58
2023/02/26 11:47:29;;;;;;;;;10.50;9.50;;;;;6.14;74.93;98901.69;6314871;20;2768044;-56
2023/02/26 11:50:13;;;;;;;;;15.67;12.67;;;;;5.55;77.25;98892.47;6285996;20;2796229;-59
2023/02/26 11:52:45;;;;;;;;;15.00;12.00;;;;;5.93;76.21;98898.38;6315459;20;2789308;-58
2023/02/26 11:55:36;;;;;;;;;10.25;9.25;;;;;5.54;75.61;98899.59;6299220;20;1810779;-59
2023/02/26 11:58:23;;;;;;;;;8.25;3.75;;;;;5.57;76.04;98906.56;6337343;20;1825454;-58
2023/02/26 12:01:01;;;;;;;;;10.00;8.00;;;;;5.73;76.68;98908.28;6317113;20;2752365;-58